Terminal Aerodrome Forecast
Issued by NWS

Home | Current Version | Previous Version | Text Only | Print | Product List | Glossary On
Versions: 1 2 3 4 5 6 7 8 9 10 11 12 13 14
000
FTUS45 KFGZ 052345
TAFGCN
TAF
KGCN 052345Z 0600/0624 VRB06KT P6SM VCTS SCT080CB BKN110
      TEMPO 0600/0604 VRB15G25KT 4SM TSRA BKN070CB
     FM060600 VRB03KT P6SM BKN120
     FM061800 25012KT P6SM SCT070 BKN110 PROB30 0619/0623 TSRA
      BKN060CB=

USA.gov is the U.S. government's official web portal to all federal, state and local government web resources and services.